Flight Track Log - Related Links

Times and Time Zones

All times are in EDT time to prevent confusion due to time zone crossing. See the UAL4236 flight status page for this flight to view local times or setup timezone preferences in your user account.

Time Position Orientation Groundspeed Altitude Reporting Facility
EDT Latitude Longitude Course Direction KTS MPH feet Rate Location/Type
Sun 06:56:44 AM 32.2331 -90.0406 245° Southwest 358 412 3,400  Level Memphis Center
Sun 06:57:44 AM 32.1894 -90.0847 221° Southwest 231 266 6,000 2,700 Climbing Memphis Center
Sun 06:58:00 AM 32.1876 -90.3415 239° Southwest  Level FlightAware Approximate
Sun 06:58:44 AM 32.1644 -90.1658 250° West 206 237 8,800  Level Memphis Center
Sun 06:59:00 AM 32.1509 -90.4316 239° Southwest  Level FlightAware Approximate
Sun 06:59:44 AM 32.1333 -90.2444 245° Southwest 244 281 11,000  Level Memphis Center
Sun 07:00:00 AM 32.1086 -90.5203 245° Southwest  Level FlightAware Approximate
Sun 07:00:44 AM 32.0958 -90.3428 246° West 283 326 12,200  Level Memphis Center
Sun 07:01:00 AM 32.0718 -90.6124 245° Southwest  Level FlightAware Approximate
Sun 07:01:44 AM 32.0539 -90.4506 245° Southwest 331 381 13,700  Level Memphis Center
Sun 07:02:44 AM 32.0119 -90.5631 246° West 362 417 15,200 1,426 Climbing Memphis Center
Sun 07:03:25 AM 31.9853 -90.6347 246° West 381 438 16,100 1,412 Climbing Houston Center
Sun 07:04:26 AM 31.9422 -90.7481 246° West 382 440 17,600 1,488 Climbing Houston Center
Sun 07:05:26 AM 31.8969 -90.8683 246° West 384 442 19,100 1,500 Climbing Houston Center
Sun 07:06:26 AM 31.8525 -90.9836 246° West 389 448 20,600 1,488 Climbing Houston Center
Sun 07:07:27 AM 31.8083 -91.0997 246° West 389 448 22,100 1,438 Climbing Houston Center
Sun 07:08:27 AM 31.7636 -91.2144 245° Southwest 387 445 23,500 950 Climbing Houston Center
Sun 07:09:27 AM 31.7192 -91.3311 246° West 390 449 24,000 248 Climbing Houston Center
Sun 07:10:28 AM 31.6714 -91.4539 245° Southwest 406 467 24,000  Level Houston Center
Sun 07:11:28 AM 31.6225 -91.5794 245° Southwest 420 483 24,000  Level Houston Center
Sun 07:12:29 AM 31.5728 -91.7053 245° Southwest 424 488 24,000  Level Houston Center
Sun 07:13:29 AM 31.5242 -91.8272 245° Southwest 417 480 24,000  Level Houston Center
Sun 07:14:30 AM 31.4775 -91.9472 246° West 408 470 24,000  Level Houston Center
Sun 07:15:30 AM 31.4211 -92.0844 244° Southwest 410 472 24,000  Level Houston Center
Sun 07:16:30 AM 31.3728 -92.2039 245° Southwest 407 468 24,000  Level Houston Center
Sun 07:17:31 AM 31.3247 -92.3239 245° Southwest 409 471 24,000  Level Houston Center
Sun 07:18:32 AM 31.2783 -92.4461 246° West 411 473 24,000  Level Houston Center
Sun 07:19:32 AM 31.2214 -92.5639 241° Southwest 418 481 24,000  Level Houston Center
Sun 07:20:33 AM 31.1589 -92.6756 237° Southwest 411 473 24,000  Level Houston Center
Sun 07:21:33 AM 31.0964 -92.7869 237° Southwest 411 473 24,000  Level Houston Center
Sun 07:22:34 AM 31.0333 -92.8983 237° Southwest 412 474 24,000  Level Houston Center
Sun 07:23:34 AM 30.9706 -93.0108 237° Southwest 415 478 24,000  Level Houston Center
Sun 07:24:35 AM 30.9069 -93.1231 237° Southwest 416 479 24,000  Level Houston Center
Sun 07:25:36 AM 30.8447 -93.2336 237° Southwest 411 473 24,000  Level Houston Center
Sun 07:26:36 AM 30.7822 -93.3450 237° Southwest 413 475 24,000 -248 Level Houston Center
Sun 07:27:37 AM 30.7194 -93.4558 237° Southwest 413 475 23,500 -1,140 Descending Houston Center
Sun 07:28:37 AM 30.6578 -93.5647 237° Southwest 407 468 21,700 -1,934 Descending Houston Center
Sun 07:29:38 AM 30.5853 -93.6922 237° Southwest 400 460 19,600 -1,918 Descending Houston Center
Sun 07:30:39 AM 30.5261 -93.7944 236° Southwest 391 450 17,800 -1,736 Descending Houston Center
Sun 07:31:39 AM 30.4681 -93.8953 236° Southwest 381 438 16,100 -1,488 Descending Houston Center
Sun 07:32:40 AM 30.4103 -93.9967 237° Southwest 378 435 14,800 -1,186 Descending Houston Center
Sun 07:33:05 AM 30.3828 -94.0444 236° Southwest 369 425 14,400 -984 Descending Houston Center
Sun 07:33:41 AM 30.3544 -94.0947 237° Southwest 371 427 13,800 -1,049 Descending Houston Center
Sun 07:34:48 AM 30.2858 -94.2100 235° Southwest 370 426 12,600 -893 Descending Houston Center
Sun 07:35:42 AM 30.2439 -94.2839 237° Southwest 350 403 12,000 -456 Descending Houston Center
Sun 07:36:07 AM 30.2186 -94.3353 240° Southwest 336 387 12,000 -98 Level Houston Center
Sun 07:36:43 AM 30.2017 -94.3808 247° West 340 391 11,900 -900 Descending Houston Center
Sun 07:37:07 AM 30.1839 -94.4317 248° West 317 365 11,100 -1,500 Descending Houston Center
Sun 07:37:43 AM 30.1717 -94.4739 251° West 314 361 10,400 -1,377 Descending Houston Center
Sun 07:38:08 AM 30.1547 -94.5200 247° West 275 316 9,700 -1,377 Descending Houston Center
Sun 07:38:44 AM 30.1417 -94.5631 251° West 272 313 9,000 -1,485 Descending Houston Center
Sun 07:39:45 AM 30.1153 -94.6403 248° West 261 300 7,300 -1,388 Descending Houston Center
Sun 07:40:45 AM 30.0894 -94.7153 248° West 254 292 6,200 -1,121 Descending Houston Center
Sun 07:41:16 AM 30.0750 -94.7600 250° West 249 287 5,600 -1,082 Descending Houston Center
Sun 07:41:46 AM 30.0650 -94.7881 248° West 245 282 5,100 -735 Descending Houston Center
Sun 07:42:05 AM 30.0567 -94.8106 247° West 230 265 5,000 -98 Descending Houston Center
Sun 07:42:47 AM 30.0428 -94.8525 249° West 221 254 5,000  Level Houston Center
Sun 07:43:05 AM 30.0333 -94.8739 243° Southwest 209 241 5,000  Level Houston Center
Sun 07:43:48 AM 30.0208 -94.9147 251° West 210 242 5,000 -641 Level Houston Center
Sun 07:44:48 AM 29.9994 -94.9789 249° West 214 246 3,900 -992 Descending Houston Center
Sun 07:45:49 AM 29.9936 -95.0439 264° West 207 238 3,000 -738 Descending Houston Center
Sun 07:46:50 AM 29.9939 -95.1086 270° West 204 235 2,400 -608 Descending Houston Center
Sun 07:47:08 AM 29.9931 -95.1372 268° West 195 224 2,200 -393 Descending Houston Center
Sun 07:47:51 AM 29.9936 -95.1689 271° West 198 228 2,000 -279 Descending Houston Center

Login

Don't have an account? Register now (free) for customized features, flight alerts, and more!